Vidsel, Sweden

10:56 AM CET on October 26, 2014 (GMT +0100)
Vidsel Air Base | Change Station
CLOSE
Current Station
Airport
Location: Vidsel,
Elevation: 597 ft
Nearby Weather Stations

Elev 597 ft 65.88 °N, 20.14 °E | Updated 6 minutes ago

Overcast
Overcast
43 °F
Feels Like 39 °F
N
6
Wind Variable Wind from SSE

Today
High -- | Low -- °F
--% Chance of Precip.
Yesterday
High -- | Low -- °F
Precip. -- in
7:11 AM 3:33 PM
Waxing Crescent, 7% visible
Pressure 29.47 in
Visibility 6.2 miles
Clouds Overcast 1800 ft
Windchill 39 °F
Dew Point 39 °F
Humidity 87%
Rainfall 0.00 in
Snow Depth Not available.
UV 0 out of 12
Pollen Not available.
Air Quality Not available.
Flu Activity Not available.
METAR ESPE 260950Z AUTO 16005KT 9999NDV OVC018/// 06/04 Q0998

More Conditions Fewer Conditions

Pressure 29.47 in
Visibility 6.2 miles
Clouds Overcast 1800 ft
Windchill 39 °F
Dew Point 39 °F
Humidity 87%
Rainfall 0.00 in
Snow Depth Not available.
UV 0 out of 12
Pollen Not available.
Air Quality Not available.
Flu Activity Not available.
METAR ESPE 260950Z AUTO 16005KT 9999NDV OVC018/// 06/04 Q0998

More Conditions Fewer Conditions

10-Day Weather Forecast

Almanac

Astronomy

Oct. 26, 2014 Rise Set
Actual Time 7:11 AM CET 3:33 PM CET
Civil Twilight 6:16 AM CET 4:28 PM CET
Nautical Twilight 5:16 AM CET 5:28 PM CET
Astronomical Twilight 4:17 AM CET 6:27 PM CET
Moon 10:21 AM CET 4:37 PM CET
Length of Visible Light 10h 12m
Length of Day
8h 21m
Tomorrow will be 7m 9s shorter.
Waxing Crescent, 7% of the Moon is Illuminated
Today
Waxing Crescent
Oct 30
First Quarter
Nov 6
Full
Nov 14
Last Quarter
Nov 22
New

Yesterday's Extremes

Country Highs Country Lows

Community

WunderPhotos

Upload Photos

1,765,132 photos uploaded!

Nearby

Snow Depth

Not available.

Earthquake Activity

City Distance Mag. Time & Date
No recent earthquake activity has been reported nearby.
Minimum magnitude displayed is 2.5.

Coastal Water Temperatures

Place Temperature
No Stations Reporting

Nearby Weather Stations